sensor_id;sensor_type;location;lat;lon;timestamp;temperature;humidity
20162;DHT22;51382;53.180;15.414;2022-12-07T00:13:59;1.40;99.90
20162;DHT22;51382;53.180;15.414;2022-12-07T00:29:14;1.40;99.90
20162;DHT22;51382;53.180;15.414;2022-12-07T00:44:27;1.20;99.90
20162;DHT22;51382;53.180;15.414;2022-12-07T00:59:33;1.50;99.90
20162;DHT22;51382;53.180;15.414;2022-12-07T01:14:41;1.80;99.90
20162;DHT22;51382;53.180;15.414;2022-12-07T01:29:49;1.80;99.90
20162;DHT22;51382;53.180;15.414;2022-12-07T02:00:51;2.00;99.90
20162;DHT22;51382;53.180;15.414;2022-12-07T02:16:08;2.00;99.90
20162;DHT22;51382;53.180;15.414;2022-12-07T02:31:24;2.10;99.90
20162;DHT22;51382;53.180;15.414;2022-12-07T02:46:40;2.20;99.90
20162;DHT22;51382;53.180;15.414;2022-12-07T03:01:50;2.30;99.90
20162;DHT22;51382;53.180;15.414;2022-12-07T03:17:10;2.40;99.90
20162;DHT22;51382;53.180;15.414;2022-12-07T03:32:21;2.30;99.90
20162;DHT22;51382;53.180;15.414;2022-12-07T03:47:41;2.30;99.90
20162;DHT22;51382;53.180;15.414;2022-12-07T04:02:56;2.10;99.90
20162;DHT22;51382;53.180;15.414;2022-12-07T04:18:08;2.00;99.90
20162;DHT22;51382;53.180;15.414;2022-12-07T04:33:14;1.90;99.90
20162;DHT22;51382;53.180;15.414;2022-12-07T04:48:20;1.60;99.90
20162;DHT22;51382;53.180;15.414;2022-12-07T05:03:32;1.90;99.90
20162;DHT22;51382;53.180;15.414;2022-12-07T05:18:38;1.80;99.90
20162;DHT22;51382;53.180;15.414;2022-12-07T05:33:49;1.80;99.90
20162;DHT22;51382;53.180;15.414;2022-12-07T05:48:55;2.00;99.90
20162;DHT22;51382;53.180;15.414;2022-12-07T06:04:07;1.90;99.90
20162;DHT22;51382;53.180;15.414;2022-12-07T06:19:18;1.80;99.90
20162;DHT22;51382;53.180;15.414;2022-12-07T06:34:29;1.80;99.90
20162;DHT22;51382;53.180;15.414;2022-12-07T06:49:36;1.40;99.90
20162;DHT22;51382;53.180;15.414;2022-12-07T07:04:42;1.30;99.90
20162;DHT22;51382;53.180;15.414;2022-12-07T07:19:53;1.40;99.90
20162;DHT22;51382;53.180;15.414;2022-12-07T07:35:06;1.40;99.90
20162;DHT22;51382;53.180;15.414;2022-12-07T07:50:17;1.50;99.90
20162;DHT22;51382;53.180;15.414;2022-12-07T08:05:29;1.50;99.90
20162;DHT22;51382;53.180;15.414;2022-12-07T08:20:35;1.60;99.90
20162;DHT22;51382;53.180;15.414;2022-12-07T08:35:47;1.60;99.90
20162;DHT22;51382;53.180;15.414;2022-12-07T08:50:58;1.70;99.90
20162;DHT22;51382;53.180;15.414;2022-12-07T09:06:10;2.00;99.90
20162;DHT22;51382;53.180;15.414;2022-12-07T09:21:21;1.90;99.90
20162;DHT22;51382;53.180;15.414;2022-12-07T09:36:33;1.80;99.90
20162;DHT22;51382;53.180;15.414;2022-12-07T09:51:46;1.60;99.90
20162;DHT22;51382;53.180;15.414;2022-12-07T10:07:08;1.60;99.90
20162;DHT22;51382;53.180;15.414;2022-12-07T10:22:19;1.70;99.90
20162;DHT22;51382;53.180;15.414;2022-12-07T10:37:26;1.80;99.90
20162;DHT22;51382;53.180;15.414;2022-12-07T10:52:42;1.70;99.90
20162;DHT22;51382;53.180;15.414;2022-12-07T11:08:03;1.80;99.90
20162;DHT22;51382;53.180;15.414;2022-12-07T11:23:27;1.80;99.90
20162;DHT22;51382;53.180;15.414;2022-12-07T11:38:50;1.90;99.90
20162;DHT22;51382;53.180;15.414;2022-12-07T11:54:10;1.90;99.90
20162;DHT22;51382;53.180;15.414;2022-12-07T12:09:21;2.30;99.90
20162;DHT22;51382;53.180;15.414;2022-12-07T12:24:39;2.60;99.90
20162;DHT22;51382;53.180;15.414;2022-12-07T12:55:48;2.30;99.90
20162;DHT22;51382;53.180;15.414;2022-12-07T13:11:28;2.10;99.90
20162;DHT22;51382;53.180;15.414;2022-12-07T13:26:42;2.30;99.90
20162;DHT22;51382;53.180;15.414;2022-12-07T13:41:54;2.40;99.90
20162;DHT22;51382;53.180;15.414;2022-12-07T13:57:07;2.50;99.90
20162;DHT22;51382;53.180;15.414;2022-12-07T14:12:18;1.90;99.90
20162;DHT22;51382;53.180;15.414;2022-12-07T14:27:29;1.70;99.90
20162;DHT22;51382;53.180;15.414;2022-12-07T14:42:44;1.10;99.90
20162;DHT22;51382;53.180;15.414;2022-12-07T14:57:58;1.20;99.90
20162;DHT22;51382;53.180;15.414;2022-12-07T15:13:10;1.30;99.90
20162;DHT22;51382;53.180;15.414;2022-12-07T15:28:38;1.10;99.90
20162;DHT22;51382;53.180;15.414;2022-12-07T15:43:50;1.00;99.90
20162;DHT22;51382;53.180;15.414;2022-12-07T15:59:18;0.80;99.90
20162;DHT22;51382;53.180;15.414;2022-12-07T16:14:30;0.70;99.90
20162;DHT22;51382;53.180;15.414;2022-12-07T16:29:41;0.90;99.90
20162;DHT22;51382;53.180;15.414;2022-12-07T16:44:52;1.30;99.90
20162;DHT22;51382;53.180;15.414;2022-12-07T16:59:58;1.30;99.90
20162;DHT22;51382;53.180;15.414;2022-12-07T17:15:07;1.30;99.90
20162;DHT22;51382;53.180;15.414;2022-12-07T17:30:25;1.00;99.90
20162;DHT22;51382;53.180;15.414;2022-12-07T17:45:37;1.20;99.90
20162;DHT22;51382;53.180;15.414;2022-12-07T18:00:48;1.20;99.90
20162;DHT22;51382;53.180;15.414;2022-12-07T18:16:07;1.30;99.90
20162;DHT22;51382;53.180;15.414;2022-12-07T18:31:20;1.40;99.90
20162;DHT22;51382;53.180;15.414;2022-12-07T18:46:38;1.40;99.90
20162;DHT22;51382;53.180;15.414;2022-12-07T19:01:51;1.50;99.90
20162;DHT22;51382;53.180;15.414;2022-12-07T19:17:05;1.50;99.90
20162;DHT22;51382;53.180;15.414;2022-12-07T19:32:25;1.20;99.90
20162;DHT22;51382;53.180;15.414;2022-12-07T19:47:40;1.50;99.90
20162;DHT22;51382;53.180;15.414;2022-12-07T20:02:51;1.70;99.90
20162;DHT22;51382;53.180;15.414;2022-12-07T20:18:00;1.70;99.90
20162;DHT22;51382;53.180;15.414;2022-12-07T20:33:14;1.70;99.90
20162;DHT22;51382;53.180;15.414;2022-12-07T20:48:21;1.60;99.90
20162;DHT22;51382;53.180;15.414;2022-12-07T21:03:33;1.60;99.90
20162;DHT22;51382;53.180;15.414;2022-12-07T21:18:40;1.40;99.90
20162;DHT22;51382;53.180;15.414;2022-12-07T21:33:53;1.10;99.90
20162;DHT22;51382;53.180;15.414;2022-12-07T21:49:05;1.20;99.90
20162;DHT22;51382;53.180;15.414;2022-12-07T22:04:20;1.10;99.90
20162;DHT22;51382;53.180;15.414;2022-12-07T22:19:32;1.30;99.90
20162;DHT22;51382;53.180;15.414;2022-12-07T22:34:43;0.70;99.90
20162;DHT22;51382;53.180;15.414;2022-12-07T22:49:54;0.80;99.90
20162;DHT22;51382;53.180;15.414;2022-12-07T23:05:07;0.90;99.90
20162;DHT22;51382;53.180;15.414;2022-12-07T23:20:19;0.70;99.90
20162;DHT22;51382;53.180;15.414;2022-12-07T23:35:30;0.70;99.90
20162;DHT22;51382;53.180;15.414;2022-12-07T23:50:41;0.50;99.90
